Time;durP1;ratioP1;P1;durP2;ratioP2;P2;SDS_P1;SDS_P2;PMS_P1;PMS_P2;Temp;Humidity;BMP_temperature;BMP_pressure;BME280_temperature;BME280_humidity;BME280_pressure;Samples;Min_cycle;Max_cycle;Signal;HPM_P1;HPM_P2
2022/01/22 00:01:09;;;;;;;198.50;160.88;;;;;;;14.65;29.75;94842.25;5005752;28;20030;-65
2022/01/22 00:03:36;;;;;;;210.25;169.02;;;;;;;14.65;29.55;94831.47;5005740;28;20057;-65
2022/01/22 00:06:01;;;;;;;196.02;158.40;;;;;;;14.64;29.79;94828.03;5007283;28;20184;-65
2022/01/22 00:08:27;;;;;;;196.68;158.90;;;;;;;14.65;29.74;94823.41;5002877;28;20502;-65
2022/01/22 00:10:53;;;;;;;197.23;157.73;;;;;;;14.64;29.61;94821.88;5004614;28;20061;-65
2022/01/22 00:15:46;;;;;;;199.38;161.48;;;;;;;14.64;29.69;94819.19;5009139;28;20084;-64
2022/01/22 00:18:12;;;;;;;206.18;166.02;;;;;;;14.63;29.70;94818.41;5007753;28;20045;-65
2022/01/22 00:20:38;;;;;;;195.80;157.55;;;;;;;14.64;29.77;94816.50;5004013;28;20069;-65
2022/01/22 00:23:05;;;;;;;196.55;159.43;;;;;;;14.62;29.58;94818.84;5004922;28;20486;-65
2022/01/22 00:25:31;;;;;;;194.70;156.25;;;;;;;14.63;29.76;94828.44;5006181;28;20057;-65
2022/01/22 00:27:57;;;;;;;191.18;155.07;;;;;;;14.62;29.76;94829.59;5003698;28;20054;-65
2022/01/22 00:30:24;;;;;;;196.70;159.35;;;;;;;14.61;29.63;94825.38;5008694;28;20517;-65
2022/01/22 00:32:51;;;;;;;193.70;156.13;;;;;;;14.61;29.45;94830.78;5008167;28;20108;-65
2022/01/22 00:35:18;;;;;;;205.25;166.00;;;;;;;14.62;29.56;94824.22;5004536;28;20127;-63
2022/01/22 00:37:47;;;;;;;195.55;156.15;;;;;;;14.60;29.55;94808.47;5007338;28;20073;-65
2022/01/22 00:40:14;;;;;;;205.90;164.55;;;;;;;14.61;29.65;94817.31;5006650;28;20072;-66
2022/01/22 00:42:42;;;;;;;197.40;159.50;;;;;;;14.61;29.75;94803.84;4997279;28;20127;-64
2022/01/22 00:45:08;;;;;;;195.38;156.90;;;;;;;14.59;29.52;94796.19;5006462;28;20119;-63
2022/01/22 00:47:34;;;;;;;194.63;154.70;;;;;;;14.59;29.54;94790.81;5009922;28;20108;-65
2022/01/22 00:50:00;;;;;;;196.25;156.65;;;;;;;14.60;29.75;94794.25;5008122;28;20042;-67
2022/01/22 00:52:26;;;;;;;201.60;160.48;;;;;;;14.61;29.75;94806.53;4993845;28;20041;-66
2022/01/22 00:54:51;;;;;;;198.75;160.35;;;;;;;14.59;29.61;94800.81;5008250;28;20037;-68
2022/01/22 00:57:17;;;;;;;200.55;162.23;;;;;;;14.59;29.37;94798.88;5006728;28;20084;-67
2022/01/22 00:59:42;;;;;;;196.50;157.73;;;;;;;14.59;29.59;94800.81;5007530;28;20410;-68
2022/01/22 01:02:07;;;;;;;199.38;159.70;;;;;;;14.57;29.50;94798.53;5009668;28;20064;-66
2022/01/22 01:04:35;;;;;;;212.05;170.65;;;;;;;14.59;29.67;94798.13;5005742;28;20041;-67
2022/01/22 01:07:02;;;;;;;195.50;156.63;;;;;;;14.59;29.69;94790.03;5005162;28;20087;-67
2022/01/22 01:09:27;;;;;;;200.38;160.60;;;;;;;14.59;29.55;94790.03;5006429;28;20042;-66
2022/01/22 01:11:58;;;;;;;192.27;153.85;;;;;;;14.59;29.55;94793.50;5009683;28;20052;-67
2022/01/22 01:14:31;;;;;;;196.65;158.00;;;;;;;14.59;29.48;94796.19;5009399;28;20071;-66
2022/01/22 01:33:13;;;;;;;202.23;160.07;;;;;;;14.58;29.41;94793.91;5004643;28;20054;-65
2022/01/22 01:35:40;;;;;;;201.40;160.88;;;;;;;14.58;29.65;94788.53;5012218;28;20746;-66
2022/01/22 01:38:07;;;;;;;208.63;164.50;;;;;;;14.57;29.49;94795.09;5003982;28;20517;-66
2022/01/22 01:40:36;;;;;;;197.30;159.63;;;;;;;14.57;29.65;94797.78;4987772;28;20062;-67
2022/01/22 01:43:08;;;;;;;191.77;153.60;;;;;;;14.58;29.44;94791.97;5006906;28;20038;-66
2022/01/22 01:45:34;;;;;;;192.25;154.07;;;;;;;14.57;29.42;94795.84;5008312;28;20049;-66
2022/01/22 01:48:04;;;;;;;199.00;159.27;;;;;;;14.57;29.48;94800.47;5007476;28;20402;-66
2022/01/22 01:50:31;;;;;;;197.95;158.43;;;;;;;14.56;29.57;94797.00;5005568;28;20037;-66
2022/01/22 01:55:49;;;;;;;200.63;158.57;;;;;;;14.57;29.59;94789.69;5009445;28;20579;-67
2022/01/22 01:58:16;;;;;;;203.00;162.75;;;;;;;14.55;29.51;94781.28;5008709;28;20057;-67
2022/01/22 02:00:41;;;;;;;200.80;159.63;;;;;;;14.56;29.50;94780.09;5007727;28;20691;-66
2022/01/22 02:03:08;;;;;;;197.02;158.60;;;;;;;14.55;29.66;94778.59;5008468;28;20060;-67
2022/01/22 02:05:36;;;;;;;201.63;160.07;;;;;;;14.54;29.66;94775.13;4995235;28;20437;-66
2022/01/22 02:08:02;;;;;;;195.55;157.32;;;;;;;14.54;29.31;94774.38;5005740;28;20042;-67
2022/01/22 02:10:31;;;;;;;197.15;157.30;;;;;;;14.54;29.33;94777.06;5004384;28;20061;-66
2022/01/22 02:23:46;;;;;;;200.82;160.38;;;;;;;14.52;29.41;94779.41;5005766;28;20045;-65
2022/01/22 02:26:14;;;;;;;195.35;156.95;;;;;;;14.50;29.34;94772.50;5004289;28;20045;-66
2022/01/22 02:28:40;;;;;;;193.68;155.63;;;;;;;14.50;29.58;94777.88;4993714;28;20054;-66
2022/01/22 02:31:13;;;;;;;192.32;155.57;;;;;;;14.53;29.46;94770.91;5003673;28;20685;-65
2022/01/22 02:33:49;;;;;;;198.77;157.25;;;;;;;14.49;29.32;94768.28;5004471;28;20046;-66
2022/01/22 02:39:08;;;;;;;193.77;155.98;;;;;;;14.49;29.40;94772.91;5004780;28;20049;-64
2022/01/22 02:41:29;;;;;;;207.07;164.38;;;;;;;14.48;29.35;94764.09;5003243;28;20044;-65
2022/01/22 02:43:56;;;;;;;194.80;157.20;;;;;;;14.48;29.52;94772.16;5001295;28;20065;-65
2022/01/22 02:46:24;;;;;;;199.32;159.30;;;;;;;14.48;29.46;94776.78;5005405;28;20911;-65
2022/01/22 02:48:51;;;;;;;196.70;159.20;;;;;;;14.48;29.21;94774.84;5004487;28;20037;-65
2022/01/22 02:51:17;;;;;;;208.30;166.15;;;;;;;14.48;29.58;94768.69;5004283;28;20506;-65
2022/01/22 02:53:43;;;;;;;200.77;160.10;;;;;;;14.47;29.34;94765.25;5005325;28;20120;-65
2022/01/22 02:56:24;;;;;;;201.43;161.15;;;;;;;14.48;29.41;94766.78;5069967;27;20394;-65
2022/01/22 02:58:51;;;;;;;194.85;156.73;;;;;;;14.48;29.21;94763.31;5068067;28;20354;-64
2022/01/22 03:01:17;;;;;;;194.20;156.50;;;;;;;14.50;29.40;94766.34;5056173;28;20885;-63
2022/01/22 03:03:44;;;;;;;195.30;156.85;;;;;;;14.52;29.21;94765.94;5062133;28;20108;-65
2022/01/22 03:06:10;;;;;;;200.25;160.07;;;;;;;14.50;29.29;94767.13;5059668;28;20516;-65
2022/01/22 03:08:38;;;;;;;202.77;162.60;;;;;;;14.48;29.46;94764.09;5057274;28;20052;-64
2022/01/22 03:11:07;;;;;;;193.40;154.27;;;;;;;14.48;29.24;94766.78;5058594;28;20048;-65
2022/01/22 03:16:11;;;;;;;194.52;154.85;;;;;;;14.52;29.16;94776.72;5059504;28;20048;-64
2022/01/22 03:29:10;;;;;;;195.98;154.48;;;;;;;14.55;29.10;94781.28;5059325;28;20045;-64
2022/01/22 03:31:37;;;;;;;196.82;157.88;;;;;;;14.52;29.27;94782.84;5062472;28;20051;-65
2022/01/22 03:34:04;;;;;;;193.93;156.38;;;;;;;14.52;29.21;94774.78;5058699;28;20485;-65
2022/01/22 03:36:33;;;;;;;192.23;154.25;;;;;;;14.51;29.11;94781.34;5060056;28;20140;-65
2022/01/22 03:38:59;;;;;;;193.57;155.57;;;;;;;14.50;28.99;94769.06;5061339;28;20057;-64
2022/01/22 03:41:24;;;;;;;212.32;169.45;;;;;;;14.52;29.06;94768.63;5061042;28;20528;-65
2022/01/22 03:43:53;;;;;;;194.48;155.18;;;;;;;14.53;29.12;94767.47;5060999;28;20109;-65
2022/01/22 03:46:20;;;;;;;197.85;159.30;;;;;;;14.53;29.04;94770.91;5060350;28;20079;-65
2022/01/22 03:48:46;;;;;;;203.25;162.13;;;;;;;14.53;29.29;94765.53;5051354;28;20051;-63
2022/01/22 03:51:12;;;;;;;194.20;155.20;;;;;;;14.54;29.43;94767.06;5056148;28;20403;-64
2022/01/22 03:53:37;;;;;;;195.77;157.85;;;;;;;14.53;29.19;94768.22;5060650;28;20090;-64
2022/01/22 03:56:05;;;;;;;190.63;154.48;;;;;;;14.54;29.09;94760.91;5060465;28;20037;-64
2022/01/22 03:58:32;;;;;;;191.38;153.98;;;;;;;14.54;29.43;94767.06;5059514;28;20087;-65
2022/01/22 04:01:38;;;;;;;195.43;157.80;;;;;;;14.55;29.42;94773.19;5056150;28;20066;-65
2022/01/22 04:04:04;;;;;;;191.88;151.88;;;;;;;14.54;29.31;94771.69;5057503;28;20052;-65
2022/01/22 04:09:00;;;;;;;197.02;156.45;;;;;;;14.54;29.32;94774.38;5041957;28;20053;-64
2022/01/22 04:11:27;;;;;;;196.52;157.35;;;;;;;14.53;29.34;94764.78;5043704;28;20135;-64
2022/01/22 04:13:58;;;;;;;196.02;157.02;;;;;;;14.50;29.20;94759.03;5047854;28;20056;-65
2022/01/22 04:16:24;;;;;;;195.27;155.90;;;;;;;14.53;29.18;94759.38;5046027;28;20044;-64
2022/01/22 04:24:51;;;;;;;195.57;154.15;;;;;;;14.53;29.45;94762.84;5004203;28;20057;-65
2022/01/22 04:27:23;;;;;;;200.02;158.85;;;;;;;14.50;29.42;94769.81;5040587;28;20748;-64
2022/01/22 04:29:49;;;;;;;199.68;159.77;;;;;;;14.52;29.31;94776.72;5044595;28;20142;-64
2022/01/22 04:32:14;;;;;;;198.07;157.65;;;;;;;14.48;29.21;94774.09;5044783;28;20052;-64
2022/01/22 04:34:40;;;;;;;192.35;155.25;;;;;;;14.48;29.05;94768.69;5046282;28;20804;-64
2022/01/22 04:37:06;;;;;;;190.35;154.20;;;;;;;14.45;29.21;94770.28;5046385;28;20041;-64
2022/01/22 04:39:31;;;;;;;191.00;153.65;;;;;;;14.47;29.40;94783.31;5042997;28;20051;-64
2022/01/22 04:41:57;;;;;;;195.98;156.93;;;;;;;14.47;29.17;94775.25;5043225;28;20160;-65
2022/01/22 04:44:26;;;;;;;194.23;155.45;;;;;;;14.46;29.30;94771.81;5044227;28;20041;-64
2022/01/22 04:47:01;;;;;;;189.07;152.10;;;;;;;14.46;29.29;94769.13;5051286;28;20167;-64
2022/01/22 04:55:12;;;;;;;193.50;152.07;;;;;;;14.47;29.55;94786.03;4982490;28;20755;-65
2022/01/22 04:57:40;;;;;;;197.48;157.35;;;;;;;14.42;29.48;94786.50;5030128;28;20068;-65
2022/01/22 05:00:12;;;;;;;197.98;157.25;;;;;;;14.42;29.61;94779.19;5043100;28;20072;-64
2022/01/22 05:02:39;;;;;;;195.60;156.45;;;;;;;14.43;29.61;94785.31;5044959;28;20044;-65
2022/01/22 05:05:06;;;;;;;189.25;150.35;;;;;;;14.44;29.53;94786.84;5046255;28;20146;-66
2022/01/22 05:07:31;;;;;;;203.38;161.95;;;;;;;14.42;29.68;94781.09;5046009;28;20124;-64
2022/01/22 05:09:58;;;;;;;194.20;153.02;;;;;;;14.42;29.78;94781.09;5042503;28;20048;-65
2022/01/22 05:12:23;;;;;;;192.43;154.88;;;;;;;14.45;29.67;94788.38;5043140;28;20095;-64
2022/01/22 05:14:49;;;;;;;197.02;157.50;;;;;;;14.46;29.74;94795.25;5045960;28;20039;-65
2022/01/22 05:17:16;;;;;;;189.93;152.82;;;;;;;14.45;29.91;94785.66;5041325;28;20415;-65
2022/01/22 05:22:41;;;;;;;193.93;153.88;;;;;;;14.40;29.88;94792.25;5041766;28;20051;-64
2022/01/22 05:25:00;;;;;;;189.45;150.02;;;;;;;14.39;29.83;94790.72;5043881;28;20079;-65
2022/01/22 05:30:50;;;;;;;191.23;152.10;;;;;;;14.42;29.74;94789.94;5043659;28;20094;-65
2022/01/22 05:33:30;;;;;;;192.48;151.32;;;;;;;14.40;29.98;94788.81;5044529;28;20686;-65
2022/01/22 05:38:40;;;;;;;193.75;153.93;;;;;;;14.36;29.99;94793.50;5040316;28;20045;-64
2022/01/22 05:41:05;;;;;;;192.98;152.35;;;;;;;14.38;29.99;94791.16;5040563;28;20060;-64
2022/01/22 05:43:31;;;;;;;196.07;156.27;;;;;;;14.41;29.96;94787.63;5039019;28;20041;-66
2022/01/22 05:45:56;;;;;;;192.60;152.73;;;;;;;14.44;29.73;94776.84;5044883;28;20068;-66
2022/01/22 05:48:22;;;;;;;200.40;159.55;;;;;;;14.46;29.97;94787.94;5040302;28;20420;-64
2022/01/22 05:53:31;;;;;;;196.30;156.73;;;;;;;14.47;29.79;94764.50;5042125;28;20052;-65
2022/01/22 06:01:14;;;;;;;197.95;157.48;;;;;;;14.52;29.99;94765.94;5044321;28;20421;-66
2022/01/22 06:03:40;;;;;;;194.27;155.05;;;;;;;14.52;30.03;94774.78;5042385;28;20052;-65
2022/01/22 06:06:05;;;;;;;194.63;155.65;;;;;;;14.54;30.23;94787.81;5045109;28;20695;-65
2022/01/22 06:08:34;;;;;;;194.50;156.38;;;;;;;14.56;30.06;94780.09;5037212;28;20877;-65
2022/01/22 06:11:07;;;;;;;194.23;155.25;;;;;;;14.54;30.07;94785.13;5042420;28;20064;-66
2022/01/22 06:13:43;;;;;;;194.63;155.68;;;;;;;14.54;30.11;94791.28;5043122;28;20049;-64
2022/01/22 06:16:23;;;;;;;203.88;162.52;;;;;;;14.56;30.05;94791.63;5040238;28;20095;-65
2022/01/22 06:18:50;;;;;;;196.85;155.48;;;;;;;14.56;30.13;94788.94;5040369;28;20056;-64
2022/01/22 06:21:16;;;;;;;197.63;158.55;;;;;;;14.58;29.98;94783.16;5041690;28;20055;-65
2022/01/22 06:23:45;;;;;;;193.27;155.25;;;;;;;14.58;30.17;94793.91;5042266;28;20060;-65
2022/01/22 06:26:11;;;;;;;193.57;156.40;;;;;;;14.59;30.26;94793.50;5042619;28;20044;-65
2022/01/22 06:28:37;;;;;;;191.23;152.85;;;;;;;14.60;30.17;94792.31;5042755;28;20062;-64
2022/01/22 06:31:03;;;;;;;193.27;153.68;;;;;;;14.61;30.21;94783.06;5043518;28;20049;-66
2022/01/22 06:33:29;;;;;;;192.27;153.43;;;;;;;14.64;30.22;94782.25;5042914;28;20057;-64
2022/01/22 06:35:54;;;;;;;188.82;151.85;;;;;;;14.64;30.22;94784.19;5042003;28;20052;-66
2022/01/22 06:38:20;;;;;;;207.15;165.65;;;;;;;14.63;30.33;94780.72;5042857;28;20094;-66
2022/01/22 06:43:31;;;;;;;191.45;153.25;;;;;;;14.55;30.34;94786.66;5042554;28;20049;-64
2022/01/22 06:45:57;;;;;;;196.00;158.02;;;;;;;14.59;30.23;94790.03;5043554;28;20059;-65
2022/01/22 06:48:23;;;;;;;194.90;157.52;;;;;;;14.60;30.45;94795.00;5043211;28;20210;-64
2022/01/22 06:50:49;;;;;;;188.32;152.35;;;;;;;14.62;30.04;94794.59;5044437;28;20051;-65
2022/01/22 06:53:15;;;;;;;196.75;158.60;;;;;;;14.62;30.42;94797.28;5038681;28;20049;-66
2022/01/22 06:56:19;;;;;;;190.13;153.27;;;;;;;14.62;30.27;94803.44;5044160;28;20586;-65
2022/01/22 06:58:32;;;;;;;192.27;152.48;;;;;;;14.62;30.30;94797.28;5041606;28;20059;-66
2022/01/22 07:00:58;;;;;;;191.15;153.10;;;;;;;14.61;30.55;94803.84;5043381;28;20045;-64
2022/01/22 07:03:23;;;;;;;195.60;156.40;;;;;;;14.63;30.42;94801.50;5046855;28;20074;-66
2022/01/22 07:05:49;;;;;;;192.25;155.05;;;;;;;14.66;30.22;94801.44;5043220;28;20131;-65
2022/01/22 07:08:14;;;;;;;203.13;163.30;;;;;;;14.65;30.34;94808.00;5043867;28;20523;-66
2022/01/22 07:10:40;;;;;;;191.52;153.82;;;;;;;14.66;30.52;94814.91;5043541;28;21167;-64
2022/01/22 07:13:05;;;;;;;195.55;156.82;;;;;;;14.66;30.58;94812.22;5040153;28;20060;-65
2022/01/22 07:15:32;;;;;;;207.57;166.63;;;;;;;14.67;30.48;94827.19;5037435;28;20095;-63
2022/01/22 07:17:58;;;;;;;212.27;170.38;;;;;;;14.65;30.50;94820.69;5039783;28;20055;-65
2022/01/22 07:20:29;;;;;;;205.40;165.52;;;;;;;14.66;30.20;94822.22;5040333;28;20053;-65
2022/01/22 07:23:15;;;;;;;194.57;155.82;;;;;;;14.66;30.55;94822.97;5038535;28;20053;-64
2022/01/22 07:25:42;;;;;;;188.23;150.32;;;;;;;14.67;30.48;94834.50;5038392;28;20052;-64
2022/01/22 07:28:09;;;;;;;207.60;166.77;;;;;;;14.64;30.45;94825.31;5036943;28;20122;-64
2022/01/22 07:30:35;;;;;;;192.90;156.30;;;;;;;14.64;30.53;94824.56;5039984;28;20056;-65
2022/01/22 07:33:00;;;;;;;198.25;160.35;;;;;;;14.66;30.54;94827.59;5037467;28;20814;-65
2022/01/22 07:35:26;;;;;;;192.23;154.55;;;;;;;14.66;30.58;94822.22;5037598;28;20040;-64
2022/01/22 07:37:51;;;;;;;192.30;155.52;;;;;;;14.67;30.63;94821.81;5042609;28;20775;-64
2022/01/22 07:40:17;;;;;;;202.95;164.70;;;;;;;14.66;30.43;94817.59;5037376;28;20067;-63
2022/01/22 07:42:42;;;;;;;200.85;160.75;;;;;;;14.65;30.79;94813.38;5036690;28;20627;-64
2022/01/22 07:45:09;;;;;;;201.10;162.40;;;;;;;14.63;30.69;94821.13;5040706;28;20094;-63
2022/01/22 07:47:36;;;;;;;208.10;166.50;;;;;;;14.63;30.68;94828.44;5041800;28;20044;-63
2022/01/22 07:50:04;;;;;;;204.30;164.40;;;;;;;14.65;30.63;94828.78;5040235;28;20449;-64
2022/01/22 07:52:29;;;;;;;195.88;157.65;;;;;;;14.65;30.66;94834.16;5041143;28;20040;-66
2022/01/22 07:54:55;;;;;;;188.85;151.98;;;;;;;14.64;30.62;94829.94;5043166;28;20072;-66
2022/01/22 07:57:20;;;;;;;193.55;155.23;;;;;;;14.66;30.76;94833.75;5042980;28;20040;-65
2022/01/22 07:59:46;;;;;;;195.10;156.05;;;;;;;14.66;30.56;94827.59;5038794;28;20048;-65
2022/01/22 08:02:13;;;;;;;192.07;153.70;;;;;;;14.66;30.62;94835.69;5040448;28;20057;-63
2022/01/22 08:04:39;;;;;;;189.20;152.52;;;;;;;14.66;30.69;94833.75;5039600;28;20046;-64
2022/01/22 08:07:05;;;;;;;185.85;149.48;;;;;;;14.68;30.75;94836.03;5040241;28;20759;-64
2022/01/22 08:09:31;;;;;;;192.15;154.88;;;;;;;14.67;30.82;94837.19;5038859;28;20064;-64
2022/01/22 08:11:57;;;;;;;192.02;153.52;;;;;;;14.66;30.80;94841.06;5039581;28;20044;-65
2022/01/22 08:14:23;;;;;;;200.30;161.60;;;;;;;14.67;30.75;94843.34;5045121;28;20087;-64
2022/01/22 08:16:49;;;;;;;195.20;157.27;;;;;;;14.69;30.88;94841.00;5037888;28;20048;-63
2022/01/22 08:19:16;;;;;;;191.68;153.70;;;;;;;14.71;30.78;94838.66;5040133;28;20044;-63
2022/01/22 08:21:43;;;;;;;194.18;155.13;;;;;;;14.69;30.93;94849.09;5039794;28;20119;-65
2022/01/22 08:24:10;;;;;;;202.18;163.45;;;;;;;14.67;30.81;94847.97;5040510;28;20053;-65
2022/01/22 08:26:40;;;;;;;191.75;154.48;;;;;;;14.66;30.83;94844.53;5044162;28;20155;-64
2022/01/22 08:29:05;;;;;;;;;;;;;;;14.70;30.72;94857.91;5039653;28;22202;-65
2022/01/22 08:36:44;;;;;;;197.38;156.90;;;;;;;14.63;30.95;94856.09;5037152;28;20052;-63
2022/01/22 08:39:10;;;;;;;194.38;156.30;;;;;;;14.60;30.88;94859.63;5044647;28;20052;-63
2022/01/22 08:41:36;;;;;;;190.00;152.73;;;;;;;14.67;30.98;94850.66;5045836;28;20040;-63
2022/01/22 08:44:03;;;;;;;186.80;148.50;;;;;;;14.70;30.85;94845.22;5046263;28;20060;-62
2022/01/22 08:46:29;;;;;;;193.57;154.15;;;;;;;14.72;31.16;94853.66;5043815;28;20497;-63
2022/01/22 08:48:56;;;;;;;198.13;158.50;;;;;;;14.72;30.83;94855.56;5044565;28;20131;-67
2022/01/22 08:51:22;;;;;;;228.00;185.05;;;;;;;14.71;30.92;94852.13;5016380;28;20425;-67
2022/01/22 08:53:49;;;;;;;209.43;166.95;;;;;;;14.73;30.86;94857.84;5028736;28;20116;-68
2022/01/22 08:56:16;;;;;;;209.70;169.52;;;;;;;14.75;31.02;94860.91;5030785;28;20128;-67
2022/01/22 08:58:43;;;;;;;219.80;176.32;;;;;;;14.75;31.05;94860.13;5028434;28;20056;-68
2022/01/22 09:01:10;;;;;;;225.65;182.25;;;;;;;14.76;30.92;94861.66;5031855;28;20059;-67
2022/01/22 09:03:37;;;;;;;205.57;166.23;;;;;;;14.75;30.85;94863.59;5031421;28;20811;-67
2022/01/22 09:06:05;;;;;;;211.23;171.32;;;;;;;14.76;30.88;94869.75;5036230;28;20155;-67
2022/01/22 09:08:31;;;;;;;207.25;167.15;;;;;;;14.77;30.71;94871.25;5029136;28;20301;-67
2022/01/22 09:10:57;;;;;;;224.68;181.40;;;;;;;14.78;30.91;94876.22;5031814;28;20503;-67
2022/01/22 09:13:25;;;;;;;204.30;165.77;;;;;;;14.76;30.93;94877.81;5033576;28;21373;-66
2022/01/22 09:15:55;;;;;;;212.43;172.35;;;;;;;14.74;31.17;94880.91;5032837;28;20052;-67
2022/01/22 09:18:20;;;;;;;229.32;185.15;;;;;;;14.75;31.08;94877.06;5031732;28;20065;-66
2022/01/22 09:21:02;;;;;;;217.60;174.38;;;;;;;14.77;31.21;94876.66;5031210;28;20045;-66
2022/01/22 09:23:29;;;;;;;215.45;172.70;;;;;;;14.75;31.11;94874.38;5028114;28;20129;-67
2022/01/22 09:25:55;;;;;;;227.88;183.27;;;;;;;14.76;31.02;94892.03;5028830;28;20060;-67
2022/01/22 09:28:21;;;;;;;230.65;183.40;;;;;;;14.77;31.05;94884.72;5029108;28;20072;-67
2022/01/22 09:30:47;;;;;;;221.10;178.02;;;;;;;14.76;31.05;94883.97;5031161;28;20143;-66
2022/01/22 09:33:14;;;;;;;220.93;178.88;;;;;;;14.78;30.98;94897.00;5028710;28;20048;-67
2022/01/22 09:35:40;;;;;;;206.45;166.75;;;;;;;14.75;31.23;94897.84;5027468;28;20845;-64
2022/01/22 09:38:06;;;;;;;229.40;185.75;;;;;;;14.75;31.05;94898.59;5030152;28;20125;-66
2022/01/22 09:40:32;;;;;;;219.20;175.98;;;;;;;14.76;31.24;94902.06;5024018;28;20144;-66
2022/01/22 09:42:59;;;;;;;217.30;176.20;;;;;;;14.74;31.15;94905.16;5031331;28;20049;-65
2022/01/22 09:45:26;;;;;;;220.85;177.57;;;;;;;14.74;31.30;94910.53;5022129;28;20053;-66
2022/01/22 09:47:53;;;;;;;227.77;182.63;;;;;;;14.74;31.17;94899.00;5023504;28;20052;-64
2022/01/22 09:50:22;;;;;;;217.07;176.27;;;;;;;14.76;31.13;94910.13;5025601;28;20786;-66
2022/01/22 09:52:49;;;;;;;221.18;178.60;;;;;;;14.73;31.30;94898.25;5029568;28;20725;-64
2022/01/22 09:55:16;;;;;;;207.15;167.63;;;;;;;14.73;31.33;94916.34;5032546;28;20170;-62
2022/01/22 09:57:44;;;;;;;215.05;174.85;;;;;;;14.73;31.39;94908.25;5030512;28;20641;-61
2022/01/22 10:00:12;;;;;;;211.80;171.25;;;;;;;14.76;31.18;94907.44;5031391;28;20134;-60
2022/01/22 10:02:43;;;;;;;222.68;179.70;;;;;;;14.75;31.28;94912.06;5030890;28;20058;-61
2022/01/22 10:05:31;;;;;;;222.35;177.77;;;;;;;14.77;31.28;94917.03;5029777;28;20052;-63
2022/01/22 10:08:31;;;;;;;220.98;176.85;;;;;;;14.78;31.28;94926.63;5031594;28;20083;-66
2022/01/22 10:10:59;;;;;;;219.63;175.20;;;;;;;14.76;31.13;94934.34;5028138;28;20458;-65
2022/01/22 10:13:52;;;;;;;215.18;171.98;;;;;;;14.75;31.12;94920.13;5029800;28;20067;-66
2022/01/22 10:16:50;;;;;;;224.45;178.93;;;;;;;14.77;31.22;94922.41;5026264;28;20041;-66
2022/01/22 10:19:21;;;;;;;213.90;170.73;;;;;;;14.77;31.23;94923.19;5010414;28;20788;-66
2022/01/22 10:21:57;;;;;;;214.73;172.48;;;;;;;14.74;31.38;94918.63;5027942;28;20068;-66
2022/01/22 10:27:26;;;;;;;217.85;176.88;;;;;;;14.76;31.19;94916.28;5029883;28;20737;-66
2022/01/22 10:29:54;;;;;;;213.00;169.88;;;;;;;14.78;31.15;94915.88;5030505;28;20056;-65
2022/01/22 10:32:27;;;;;;;213.63;172.18;;;;;;;14.75;31.26;94916.69;5028799;28;20063;-66
2022/01/22 10:35:15;;;;;;;216.15;174.32;;;;;;;14.77;31.28;94920.50;5031774;28;20048;-66
2022/01/22 10:37:42;;;;;;;233.35;188.23;;;;;;;14.75;31.49;94916.69;5031612;28;20056;-66
2022/01/22 10:40:23;;;;;;;218.07;175.32;;;;;;;14.76;31.28;94910.88;5033442;28;20057;-66
2022/01/22 10:42:51;;;;;;;203.68;163.07;;;;;;;14.75;31.26;94914.00;5032406;28;20067;-65
2022/01/22 10:45:26;;;;;;;217.25;174.50;;;;;;;14.74;31.44;94915.16;5028885;28;20060;-65
2022/01/22 10:48:13;;;;;;;222.95;178.63;;;;;;;14.75;31.32;94920.13;5030058;28;20041;-65
2022/01/22 10:50:39;;;;;;;218.90;175.23;;;;;;;14.75;31.53;94919.38;5032560;28;20052;-65
2022/01/22 10:53:05;;;;;;;220.02;178.32;;;;;;;14.73;31.45;94922.47;5030079;28;20057;-65
2022/01/22 10:55:31;;;;;;;215.63;173.38;;;;;;;14.71;31.60;94919.44;5030849;28;20044;-65
2022/01/22 10:58:09;;;;;;;217.48;174.02;;;;;;;14.74;31.54;94925.94;5032642;28;20615;-64
2022/01/22 11:00:36;;;;;;;216.63;172.60;;;;;;;14.73;31.49;94917.09;5030338;28;20044;-64
2022/01/22 11:03:21;;;;;;;219.63;177.48;;;;;;;14.74;31.37;94912.47;5030789;28;20047;-64
2022/01/22 11:05:48;;;;;;;202.20;162.57;;;;;;;14.73;31.40;94913.63;5032532;28;20183;-65
2022/01/22 11:08:14;;;;;;;220.13;177.43;;;;;;;14.75;31.51;94922.06;5030667;28;20077;-64
2022/01/22 11:10:44;;;;;;;218.43;176.60;;;;;;;14.74;31.35;94917.84;5032197;28;20050;-65
2022/01/22 11:13:09;;;;;;;;;;;;;;;14.75;31.44;94922.81;5030250;28;20617;-64
2022/01/22 11:15:38;;;;;;;204.45;158.85;;;;;;;14.74;31.52;94925.94;5032566;28;19928;-65
2022/01/22 11:18:04;;;;;;;216.52;172.85;;;;;;;14.73;31.49;94919.03;5034357;28;20041;-65
2022/01/22 11:20:32;;;;;;;219.43;176.30;;;;;;;14.73;31.56;94919.03;5035876;28;20090;-64
2022/01/22 11:22:59;;;;;;;216.70;173.77;;;;;;;14.73;31.59;94917.09;5036921;28;20068;-65
2022/01/22 11:25:25;;;;;;;206.88;167.40;;;;;;;14.72;31.74;94920.19;5036911;28;20504;-65
2022/01/22 11:27:52;;;;;;;207.60;165.85;;;;;;;14.71;31.60;94927.50;5034765;28;20060;-65
2022/01/22 11:30:22;;;;;;;226.23;183.27;;;;;;;14.71;31.77;94918.66;5036621;28;20533;-65
2022/01/22 11:32:52;;;;;;;212.80;171.15;;;;;;;14.70;31.64;94917.91;5034107;28;20055;-65
2022/01/22 11:35:36;;;;;;;215.77;172.43;;;;;;;14.60;31.89;94910.00;5034764;28;20040;-65
2022/01/22 11:38:09;;;;;;;202.68;163.63;;;;;;;14.58;31.91;94923.13;5033072;28;21391;-65
2022/01/22 11:40:35;;;;;;;208.15;167.65;;;;;;;14.62;31.78;94921.88;5038188;28;20748;-65
2022/01/22 11:45:36;;;;;;;216.05;174.10;;;;;;;14.69;31.80;94924.47;5033429;28;20040;-65
2022/01/22 11:48:23;;;;;;;208.35;168.43;;;;;;;14.71;31.65;94927.50;5030037;28;20041;-65
2022/01/22 11:50:52;;;;;;;218.77;175.30;;;;;;;14.70;31.74;94928.69;5034925;28;20071;-64
2022/01/22 11:53:22;;;;;;;219.18;176.32;;;;;;;14.71;31.75;94913.28;5035775;28;20044;-64
2022/01/22 11:56:25;;;;;;;221.10;178.23;;;;;;;14.71;31.57;94916.75;5032359;28;20656;-65
2022/01/22 11:58:56;;;;;;;211.23;168.43;;;;;;;14.72;31.71;94909.44;4998420;28;20937;-65
2022/01/22 12:01:40;;;;;;;223.25;180.55;;;;;;;14.73;31.77;94921.72;5031842;28;20053;-65
2022/01/22 12:04:08;;;;;;;217.82;175.30;;;;;;;14.71;31.63;94922.13;5032528;28;20060;-65
2022/01/22 12:06:35;;;;;;;231.38;185.73;;;;;;;14.72;31.81;94915.56;5031544;28;20041;-65
2022/01/22 12:09:05;;;;;;;216.07;174.02;;;;;;;14.71;31.70;94919.44;5032364;28;20231;-65
2022/01/22 12:14:49;;;;;;;197.82;158.90;;;;;;;14.72;31.74;94923.66;5035531;28;20057;-65
2022/01/22 12:17:25;;;;;;;224.85;179.82;;;;;;;14.73;31.90;94921.72;5033839;28;20056;-65
2022/01/22 12:22:30;;;;;;;226.65;180.15;;;;;;;14.74;31.75;94921.31;5033653;28;20041;-65
2022/01/22 12:24:57;;;;;;;214.48;173.10;;;;;;;14.72;31.86;94926.34;5033511;28;20056;-65
2022/01/22 12:27:45;;;;;;;206.65;165.80;;;;;;;14.74;31.71;94925.94;5034038;28;20500;-65
2022/01/22 12:30:13;;;;;;;215.98;173.30;;;;;;;14.74;31.75;94925.94;5032178;28;20053;-65
2022/01/22 12:32:47;;;;;;;214.82;173.75;;;;;;;14.74;31.93;94923.25;5033429;28;20142;-66
2022/01/22 12:35:34;;;;;;;224.20;181.63;;;;;;;14.73;31.83;94925.16;5031964;28;20052;-65
2022/01/22 12:38:19;;;;;;;226.10;180.65;;;;;;;14.71;32.04;94915.97;5030708;28;20319;-65
2022/01/22 12:40:46;;;;;;;217.70;174.45;;;;;;;14.73;31.89;94921.72;5031041;28;20044;-65
2022/01/22 12:43:20;;;;;;;220.05;179.13;;;;;;;14.73;31.89;94924.41;5030053;28;20064;-65
2022/01/22 12:45:55;;;;;;;204.15;165.95;;;;;;;14.76;31.75;94920.91;5032037;28;20052;-64
2022/01/22 12:48:21;;;;;;;229.80;185.35;;;;;;;14.76;31.82;94920.91;5031534;28;20220;-65